createdAt,value
2022-08-09T00:00:00.880Z,7.32
2022-08-09T00:02:33.885Z,7.28
2022-08-09T00:06:19.335Z,8.80
2022-08-09T00:07:52.339Z,8.07
2022-08-09T00:10:24.485Z,5.43
2022-08-09T00:12:53.310Z,8.70
2022-08-09T00:15:26.790Z,7.30
2022-08-09T00:18:11.845Z,7.47
2022-08-09T00:20:42.510Z,7.20
2022-08-09T00:23:55.355Z,6.70
2022-08-09T00:26:05.388Z,9.45
2022-08-09T00:28:34.456Z,6.72
2022-08-09T00:31:55.820Z,7.88
2022-08-09T00:33:53.084Z,8.60
2022-08-09T00:36:29.702Z,6.20
2022-08-09T00:38:58.494Z,5.97
2022-08-09T00:44:15.386Z,7.85
2022-08-09T00:44:25.014Z,7.50
2022-08-09T00:46:55.810Z,6.20
2022-08-09T00:49:31.065Z,7.45
2022-08-09T00:52:05.302Z,12.55
2022-08-09T00:54:36.372Z,8.32
2022-08-09T00:57:10.471Z,8.95
2022-08-09T00:59:40.948Z,6.80
2022-08-09T01:02:13.625Z,8.90
2022-08-09T01:04:50.104Z,8.43
2022-08-09T01:07:37.840Z,11.70
2022-08-09T01:10:25.910Z,6.68
2022-08-09T01:13:04.183Z,6.27
2022-08-09T01:15:41.126Z,7.78
2022-08-09T01:18:29.690Z,7.57
2022-08-09T01:21:12.686Z,9.65
2022-08-09T01:24:03.012Z,9.70
2022-08-09T01:26:58.025Z,9.43
2022-08-09T01:29:41.034Z,8.38
2022-08-09T01:32:31.031Z,7.60
2022-08-09T01:35:06.977Z,9.82
2022-08-09T01:38:05.981Z,9.00
2022-08-09T01:40:28.393Z,6.53
2022-08-09T01:42:58.983Z,7.55
2022-08-09T01:45:29.316Z,8.90
2022-08-09T01:47:59.599Z,8.23
2022-08-09T01:50:36.632Z,8.30
2022-08-09T01:53:19.847Z,7.20
2022-08-09T01:55:49.175Z,11.35
2022-08-09T01:58:18.680Z,6.90
2022-08-09T02:00:54.326Z,9.32
2022-08-09T02:03:23.061Z,8.05
2022-08-09T02:06:04.110Z,8.27
2022-08-09T02:08:57.137Z,8.35
2022-08-09T02:11:43.463Z,9.90
2022-08-09T02:14:26.218Z,8.10
2022-08-09T02:16:59.912Z,8.18
2022-08-09T02:19:43.762Z,7.77
2022-08-09T02:22:17.733Z,12.40
2022-08-09T02:24:57.886Z,8.48
2022-08-09T02:27:57.397Z,8.25
2022-08-09T02:30:19.067Z,10.80
2022-08-09T02:32:49.187Z,9.53
2022-08-09T02:35:26.116Z,9.45
2022-08-09T02:38:11.654Z,9.50
2022-08-09T02:40:50.060Z,9.98
2022-08-09T02:43:21.175Z,8.60
2022-08-09T02:45:52.848Z,11.07
2022-08-09T02:48:31.005Z,10.85
2022-08-09T02:51:02.560Z,10.68
2022-08-09T02:53:34.352Z,8.70
2022-08-09T02:56:04.443Z,7.88
2022-08-09T02:58:36.709Z,8.33
2022-08-09T03:01:11.031Z,8.45
2022-08-09T03:04:13.205Z,9.55
2022-08-09T03:06:31.447Z,11.38
2022-08-09T03:09:02.241Z,9.13
2022-08-09T03:12:10.474Z,11.03
2022-08-09T03:14:26.533Z,9.63
2022-08-09T03:16:58.988Z,9.93
2022-08-09T03:19:59.161Z,10.68
2022-08-09T03:22:25.479Z,6.85
2022-08-09T03:25:06.277Z,9.33
2022-08-09T03:27:49.066Z,11.05
2022-08-09T03:30:30.208Z,10.70
2022-08-09T03:33:17.584Z,10.90
2022-08-09T03:36:13.261Z,13.32
2022-08-09T03:38:37.252Z,11.07
2022-08-09T03:41:09.711Z,10.55
2022-08-09T03:44:02.882Z,10.77
2022-08-09T03:46:31.247Z,12.43
2022-08-09T03:49:03.987Z,10.68
2022-08-09T03:51:55.622Z,10.57
2022-08-09T03:54:29.527Z,14.38
2022-08-09T03:57:00.102Z,12.30
2022-08-09T03:59:43.131Z,11.18
2022-08-09T04:02:15.282Z,15.63
2022-08-09T04:04:57.231Z,10.63
2022-08-09T04:07:47.924Z,11.15
2022-08-09T04:10:14.231Z,12.38
2022-08-09T04:12:49.880Z,12.25
2022-08-09T04:15:39.032Z,13.75
2022-08-09T04:18:08.473Z,12.47
2022-08-09T04:20:37.415Z,14.05
2022-08-09T04:23:09.698Z,10.57
2022-08-09T04:25:38.248Z,10.98
2022-08-09T04:28:06.578Z,13.68
2022-08-09T04:30:34.071Z,12.73
2022-08-09T04:33:01.745Z,12.70
2022-08-09T04:35:29.456Z,10.82
2022-08-09T04:38:03.688Z,12.35
2022-08-09T04:40:45.612Z,10.45
2022-08-09T04:43:15.989Z,10.63
2022-08-09T04:45:53.925Z,12.57
2022-08-09T04:48:23.851Z,12.20
2022-08-09T04:51:00.812Z,10.02
2022-08-09T04:53:31.346Z,10.15
2022-08-09T04:56:05.525Z,11.20
2022-08-09T04:58:33.955Z,11.52
2022-08-09T05:01:02.885Z,8.70
2022-08-09T05:03:43.061Z,10.07
2022-08-09T05:06:11.792Z,8.63
2022-08-09T05:08:51.018Z,9.60
2022-08-09T05:11:18.512Z,11.20
2022-08-09T05:13:48.524Z,12.63
2022-08-09T05:16:16.144Z,12.07
2022-08-09T05:18:57.210Z,12.63
2022-08-09T05:21:29.949Z,10.70
2022-08-09T05:24:01.867Z,13.25
2022-08-09T05:26:45.352Z,14.38
2022-08-09T05:29:17.724Z,12.77
2022-08-09T05:31:49.320Z,10.65
2022-08-09T05:34:30.055Z,11.37
2022-08-09T05:37:01.524Z,10.13
2022-08-09T05:39:36.199Z,9.10
2022-08-09T05:42:17.952Z,11.52
2022-08-09T05:44:58.397Z,11.68
2022-08-09T05:47:30.297Z,13.30
2022-08-09T05:50:26.087Z,11.20
2022-08-09T05:52:53.322Z,8.57
2022-08-09T05:55:23.472Z,11.68
2022-08-09T05:57:57.365Z,9.25
2022-08-09T06:00:26.395Z,8.70
2022-08-09T06:02:56.999Z,8.13
2022-08-09T06:05:50.311Z,10.48
2022-08-09T06:08:12.409Z,9.02
2022-08-09T06:10:41.355Z,10.07
2022-08-09T06:13:20.289Z,10.57
2022-08-09T06:15:50.954Z,9.88
2022-08-09T06:18:23.755Z,14.55
2022-08-09T06:20:54.531Z,11.10
2022-08-09T06:23:55.731Z,8.77
2022-08-09T06:26:14.239Z,9.13
2022-08-09T06:28:43.346Z,11.15
2022-08-09T06:31:11.226Z,9.10
2022-08-09T06:33:40.936Z,9.25
2022-08-09T06:36:09.471Z,7.72
2022-08-09T06:38:47.191Z,7.67
2022-08-09T06:41:20.471Z,7.35
2022-08-09T06:43:48.937Z,8.05
2022-08-09T06:46:39.821Z,7.03
2022-08-09T06:49:04.263Z,12.55
2022-08-09T06:51:33.560Z,8.37
2022-08-09T06:54:06.734Z,7.80
2022-08-09T06:56:45.475Z,7.30
2022-08-09T07:00:49.989Z,8.52
2022-08-09T07:02:04.335Z,14.55
2022-08-09T07:04:32.888Z,9.30
2022-08-09T07:07:01.085Z,7.85
2022-08-09T07:09:54.233Z,11.57
2022-08-09T07:12:21.978Z,7.35
2022-08-09T07:16:35.131Z,9.82
2022-08-09T07:18:01.900Z,5.27
2022-08-09T07:20:30.042Z,6.68
2022-08-09T07:22:59.230Z,5.82
2022-08-09T07:25:27.522Z,7.53
2022-08-09T07:27:57.867Z,7.97
2022-08-09T07:30:27.916Z,6.83
2022-08-09T07:33:00.371Z,8.07
2022-08-09T07:35:28.358Z,6.93
2022-08-09T07:37:59.493Z,8.40
2022-08-09T07:40:37.397Z,6.05
2022-08-09T07:43:16.786Z,7.43
2022-08-09T07:45:44.660Z,10.10
2022-08-09T07:48:25.359Z,8.52
2022-08-09T07:51:09.246Z,7.28
2022-08-09T07:54:04.863Z,8.82
2022-08-09T07:56:33.619Z,4.97
2022-08-09T07:59:10.500Z,5.80
2022-08-09T08:01:43.330Z,4.22
2022-08-09T08:04:20.871Z,5.80
2022-08-09T08:07:00.102Z,6.03
2022-08-09T08:09:45.176Z,6.30
2022-08-09T08:12:24.758Z,6.95
2022-08-09T08:14:58.400Z,5.20
2022-08-09T08:17:52.067Z,6.55
2022-08-09T08:20:15.369Z,6.05
2022-08-09T08:22:43.694Z,5.47
2022-08-09T08:25:16.437Z,7.35
2022-08-09T08:27:47.058Z,5.85
2022-08-09T08:30:19.241Z,6.75
2022-08-09T08:32:52.767Z,6.22
2022-08-09T08:35:22.818Z,5.60
2022-08-09T08:38:01.890Z,6.03
2022-08-09T08:40:37.028Z,4.97
2022-08-09T08:43:13.486Z,6.93
2022-08-09T08:45:53.425Z,6.80
2022-08-09T08:48:33.205Z,7.37
2022-08-09T08:51:01.299Z,8.82
2022-08-09T08:53:32.281Z,6.03
2022-08-09T08:56:06.269Z,8.30
2022-08-09T08:58:36.846Z,8.43
2022-08-09T09:01:08.881Z,4.53
2022-08-09T09:03:50.505Z,10.05
2022-08-09T09:06:19.459Z,6.22
2022-08-09T09:08:52.413Z,6.43
2022-08-09T09:11:21.717Z,6.35
2022-08-09T09:13:56.159Z,5.50
2022-08-09T09:16:30.693Z,4.28
2022-08-09T09:19:37.275Z,7.43
2022-08-09T09:22:05.310Z,4.55
2022-08-09T09:24:38.015Z,5.50
2022-08-09T09:27:08.775Z,9.33
2022-08-09T09:30:08.536Z,5.18
2022-08-09T09:32:32.335Z,7.60
2022-08-09T09:35:07.515Z,6.15
2022-08-09T09:37:37.756Z,5.57
2022-08-09T09:40:09.799Z,6.50
2022-08-09T09:42:39.122Z,6.00
2022-08-09T09:45:14.425Z,3.30
2022-08-09T09:47:58.410Z,5.50
2022-08-09T09:50:49.413Z,6.07
2022-08-09T09:53:20.936Z,4.83
2022-08-09T09:55:57.644Z,4.05
2022-08-09T09:58:47.021Z,12.10
2022-08-09T10:01:36.991Z,7.75
2022-08-09T10:04:16.057Z,9.48
2022-08-09T10:06:53.895Z,6.43
2022-08-09T10:09:24.072Z,5.80
2022-08-09T10:12:07.860Z,4.78
2022-08-09T10:14:48.087Z,4.70
2022-08-09T10:17:40.203Z,7.55
2022-08-09T10:20:27.646Z,5.40
2022-08-09T10:23:13.499Z,4.97
2022-08-09T10:26:07.982Z,6.13
2022-08-09T10:28:30.224Z,7.15
2022-08-09T10:34:09.658Z,5.13
2022-08-09T10:36:35.463Z,6.30
2022-08-09T10:39:03.396Z,4.35
2022-08-09T10:41:42.016Z,6.50
2022-08-09T10:44:11.343Z,5.28
2022-08-09T10:47:00.665Z,5.20
2022-08-09T10:49:50.829Z,4.93
2022-08-09T10:52:44.960Z,5.60
2022-08-09T10:55:23.816Z,5.40
2022-08-09T10:57:55.375Z,7.85
2022-08-09T11:00:35.319Z,5.87
2022-08-09T11:03:18.170Z,6.32
2022-08-09T11:06:24.071Z,4.88
2022-08-09T11:08:53.952Z,5.20
2022-08-09T11:11:23.234Z,9.88
2022-08-09T11:14:28.331Z,7.43
2022-08-09T11:16:56.439Z,4.93
2022-08-09T11:20:11.021Z,6.00
2022-08-09T11:22:59.620Z,6.18
2022-08-09T11:25:48.002Z,7.10
2022-08-09T11:28:56.724Z,4.53
2022-08-09T11:31:52.566Z,7.38
2022-08-09T11:34:30.898Z,9.30
2022-08-09T11:37:01.160Z,9.63
2022-08-09T11:39:37.802Z,5.10
2022-08-09T11:42:14.737Z,6.10
2022-08-09T11:44:46.094Z,5.18
2022-08-09T11:47:14.370Z,8.32
2022-08-09T11:50:55.325Z,4.25
2022-08-09T11:53:28.226Z,4.85
2022-08-09T11:56:41.855Z,8.20
2022-08-09T11:59:14.097Z,6.25
2022-08-09T12:02:16.155Z,4.53
2022-08-09T12:04:37.389Z,6.68
2022-08-09T12:07:07.951Z,7.43
2022-08-09T12:09:37.622Z,6.07
2022-08-09T12:12:12.378Z,4.15
2022-08-09T12:15:08.065Z,4.60
2022-08-09T12:17:42.810Z,5.18
2022-08-09T12:20:16.331Z,8.45
2022-08-09T12:22:48.095Z,5.73
2022-08-09T12:25:31.813Z,3.28
2022-08-09T12:28:59.953Z,10.10
2022-08-09T12:31:02.811Z,5.32
2022-08-09T12:33:58.557Z,7.03
2022-08-09T12:36:32.303Z,4.67
2022-08-09T12:39:02.401Z,6.75
2022-08-09T12:41:39.035Z,7.43
2022-08-09T12:44:09.716Z,3.97
2022-08-09T12:46:41.103Z,4.28
2022-08-09T12:49:09.481Z,7.43
2022-08-09T12:52:00.405Z,6.13
2022-08-09T12:54:24.491Z,4.47
2022-08-09T12:56:54.681Z,6.25
2022-08-09T12:59:23.891Z,5.38
2022-08-09T13:02:07.076Z,6.37
2022-08-09T13:04:38.754Z,9.73
2022-08-09T13:07:14.674Z,10.93
2022-08-09T13:09:52.882Z,6.30
2022-08-09T13:12:28.054Z,3.78
2022-08-09T13:15:04.839Z,4.60
2022-08-09T13:18:02.492Z,3.60
2022-08-09T13:20:37.756Z,3.42
2022-08-09T13:24:16.390Z,3.92
2022-08-09T13:26:10.427Z,3.78
2022-08-09T13:28:39.817Z,6.17
2022-08-09T13:32:13.206Z,3.40
2022-08-09T13:33:58.450Z,6.03
2022-08-09T13:36:41.414Z,6.93
2022-08-09T13:41:19.555Z,4.75
2022-08-09T13:42:02.668Z,4.93
2022-08-09T13:44:31.106Z,4.95
2022-08-09T13:47:27.706Z,4.80
2022-08-09T13:49:58.092Z,4.10
2022-08-09T13:52:29.655Z,6.78
2022-08-09T13:54:59.047Z,7.67
2022-08-09T13:57:37.112Z,3.42
2022-08-09T14:00:10.664Z,4.63
2022-08-09T14:02:42.804Z,3.63
2022-08-09T14:05:57.258Z,2.83
2022-08-09T14:08:17.577Z,6.57
2022-08-09T14:10:51.834Z,4.60
2022-08-09T14:13:27.763Z,6.55
2022-08-09T14:16:09.165Z,7.00
2022-08-09T14:18:38.866Z,4.10
2022-08-09T14:21:17.149Z,4.70
2022-08-09T14:23:54.576Z,5.90
2022-08-09T14:26:31.659Z,8.02
2022-08-09T14:29:00.455Z,7.10
2022-08-09T14:31:36.207Z,5.07
2022-08-09T14:34:17.540Z,4.00
2022-08-09T14:36:56.160Z,3.80
2022-08-09T14:39:45.538Z,5.35
2022-08-09T14:42:11.112Z,5.78
2022-08-09T14:44:48.202Z,5.30
2022-08-09T14:47:39.809Z,5.63
2022-08-09T14:50:04.955Z,3.10
2022-08-09T14:52:34.652Z,7.63
2022-08-09T14:55:03.358Z,6.65
2022-08-09T14:57:31.732Z,5.68
2022-08-09T14:59:59.872Z,4.70
2022-08-09T15:02:28.532Z,5.00
2022-08-09T15:04:57.534Z,3.85
2022-08-09T15:07:26.220Z,3.80
2022-08-09T15:10:07.443Z,4.20
2022-08-09T15:12:38.920Z,7.43
2022-08-09T15:15:13.442Z,4.70
2022-08-09T15:17:42.078Z,6.80
2022-08-09T15:20:15.458Z,4.15
2022-08-09T15:22:59.768Z,7.75
2022-08-09T15:25:48.657Z,6.30
2022-08-09T15:28:26.227Z,4.75
2022-08-09T15:31:08.616Z,8.75
2022-08-09T15:34:27.394Z,4.05
2022-08-09T15:36:29.426Z,6.20
2022-08-09T15:38:58.855Z,4.60
2022-08-09T15:41:31.354Z,6.57
2022-08-09T15:44:00.514Z,4.50
2022-08-09T15:46:34.030Z,4.97
2022-08-09T15:49:22.054Z,6.28
2022-08-09T15:52:03.738Z,6.53
2022-08-09T15:54:46.364Z,5.43
2022-08-09T15:57:19.002Z,7.07
2022-08-09T16:00:02.670Z,6.30
2022-08-09T16:02:30.083Z,6.38
2022-08-09T16:04:57.523Z,8.50
2022-08-09T16:07:25.862Z,4.18
2022-08-09T16:10:04.534Z,5.20
2022-08-09T16:12:34.616Z,5.35
2022-08-09T16:15:04.752Z,5.80
2022-08-09T16:17:52.302Z,6.53
2022-08-09T16:20:19.776Z,4.45
2022-08-09T16:22:57.562Z,6.05
2022-08-09T16:25:36.794Z,7.45
2022-08-09T16:28:12.054Z,3.17
2022-08-09T16:30:44.717Z,6.90
2022-08-09T16:33:26.404Z,5.70
2022-08-09T16:35:59.093Z,6.68
2022-08-09T16:38:29.683Z,4.85
2022-08-09T16:40:57.826Z,6.93
2022-08-09T16:43:26.834Z,5.27
2022-08-09T16:45:55.115Z,6.13
2022-08-09T16:48:42.195Z,4.25
2022-08-09T16:51:13.668Z,4.05
2022-08-09T16:54:09.140Z,6.82
2022-08-09T16:56:30.872Z,5.70
2022-08-09T16:59:01.176Z,4.65
2022-08-09T17:01:33.824Z,4.43
2022-08-09T17:04:01.784Z,4.60
2022-08-09T17:06:33.209Z,4.57
2022-08-09T17:09:43.885Z,4.47
2022-08-09T17:11:52.713Z,3.92
2022-08-09T17:14:27.511Z,4.15
2022-08-09T17:16:59.758Z,5.20
2022-08-09T17:19:46.461Z,3.75
2022-08-09T17:22:24.051Z,3.63
2022-08-09T17:25:03.841Z,6.25
2022-08-09T17:27:32.984Z,5.03
2022-08-09T17:30:06.786Z,7.55
2022-08-09T17:32:38.308Z,5.32
2022-08-09T17:35:12.068Z,6.03
2022-08-09T17:38:02.177Z,5.97
2022-08-09T17:40:29.276Z,6.25
2022-08-09T17:42:59.514Z,3.92
2022-08-09T17:45:45.578Z,7.40
2022-08-09T17:48:16.690Z,8.30
2022-08-09T17:50:56.444Z,6.15
2022-08-09T17:53:27.505Z,5.05
2022-08-09T17:56:03.306Z,4.00
2022-08-09T17:58:35.142Z,5.65
2022-08-09T18:01:04.093Z,3.90
2022-08-09T18:03:31.802Z,5.82
2022-08-09T18:06:00.872Z,4.68
2022-08-09T18:08:29.423Z,5.93
2022-08-09T18:11:00.918Z,4.40
2022-08-09T18:13:43.037Z,6.90
2022-08-09T18:16:29.109Z,6.50
2022-08-09T18:18:57.291Z,6.68
2022-08-09T18:21:27.188Z,5.55
2022-08-09T18:24:10.418Z,8.10
2022-08-09T18:26:46.235Z,4.93
2022-08-09T18:30:40.546Z,6.47
2022-08-09T18:32:05.353Z,7.00
2022-08-09T18:34:35.114Z,5.47
2022-08-09T18:37:03.219Z,7.53
2022-08-09T18:39:32.245Z,4.70
2022-08-09T18:42:05.206Z,13.30
2022-08-09T18:44:35.672Z,5.97
2022-08-09T18:47:09.703Z,9.07
2022-08-09T18:49:43.037Z,6.05
2022-08-09T18:52:14.588Z,5.77
2022-08-09T18:54:52.660Z,8.10
2022-08-09T18:57:22.353Z,4.68
2022-08-09T18:59:54.378Z,7.15
2022-08-09T19:02:31.913Z,7.32
2022-08-09T19:05:04.197Z,6.17
2022-08-09T19:08:04.768Z,6.78
2022-08-09T19:10:37.375Z,6.93
2022-08-09T19:13:17.076Z,8.10
2022-08-09T19:15:51.527Z,4.53
2022-08-09T19:18:33.232Z,9.43
2022-08-09T19:21:09.396Z,5.53
2022-08-09T19:24:36.457Z,5.80
2022-08-09T19:26:31.094Z,7.82
2022-08-09T19:29:01.773Z,4.85
2022-08-09T19:31:30.750Z,6.37
2022-08-09T19:34:21.922Z,5.93
2022-08-09T19:36:51.198Z,6.05
2022-08-09T19:39:20.839Z,8.85
2022-08-09T19:42:06.855Z,6.65
2022-08-09T19:44:35.321Z,9.23
2022-08-09T19:47:03.825Z,4.93
2022-08-09T19:50:48.473Z,5.22
2022-08-09T19:52:21.483Z,5.65
2022-08-09T19:54:48.961Z,4.70
2022-08-09T19:57:16.551Z,6.33
2022-08-09T20:00:05.543Z,5.75
2022-08-09T20:04:07.558Z,5.22
2022-08-09T20:05:23.641Z,5.07
2022-08-09T20:07:59.520Z,5.45
2022-08-09T20:10:34.921Z,7.10
2022-08-09T20:13:06.582Z,5.45
2022-08-09T20:16:38.342Z,9.27
2022-08-09T20:18:23.080Z,6.88
2022-08-09T20:20:57.711Z,6.75
2022-08-09T20:23:39.225Z,5.13
2022-08-09T20:26:07.974Z,5.47
2022-08-09T20:28:47.885Z,7.85
2022-08-09T20:31:15.765Z,4.88
2022-08-09T20:33:44.061Z,3.92
2022-08-09T20:36:14.268Z,6.17
2022-08-09T20:39:27.959Z,7.35
2022-08-09T20:41:35.060Z,7.88
2022-08-09T20:44:06.958Z,10.68
2022-08-09T20:46:42.711Z,8.07
2022-08-09T20:49:12.775Z,5.67
2022-08-09T20:51:42.321Z,13.85
2022-08-09T20:54:12.740Z,5.97
2022-08-09T20:56:47.076Z,7.95
2022-08-09T20:59:17.209Z,7.60
2022-08-09T21:01:50.426Z,4.43
2022-08-09T21:05:51.967Z,4.15
2022-08-09T21:07:11.434Z,6.00
2022-08-09T21:09:45.239Z,5.60
2022-08-09T21:14:49.008Z,6.93
2022-08-09T21:18:21.862Z,4.97
2022-08-09T21:20:22.700Z,5.97
2022-08-09T21:22:54.986Z,4.88
2022-08-09T21:25:44.338Z,6.15
2022-08-09T21:28:22.135Z,5.00
2022-08-09T21:31:16.853Z,5.53
2022-08-09T21:33:50.410Z,4.90
2022-08-09T21:36:18.955Z,3.83
2022-08-09T21:38:56.802Z,5.10
2022-08-09T21:42:04.476Z,7.07
2022-08-09T21:44:15.418Z,4.57
2022-08-09T21:47:01.769Z,6.05
2022-08-09T21:49:29.369Z,7.25
2022-08-09T21:52:16.620Z,4.22
2022-08-09T21:54:50.706Z,8.27
2022-08-09T21:57:38.844Z,4.65
2022-08-09T22:00:25.361Z,5.68
2022-08-09T22:02:58.786Z,8.73
2022-08-09T22:05:35.552Z,5.53
2022-08-09T22:08:05.836Z,5.70
2022-08-09T22:10:35.423Z,5.45
2022-08-09T22:13:23.703Z,4.40
2022-08-09T22:15:58.936Z,5.15
2022-08-09T22:18:30.845Z,7.03
2022-08-09T22:21:00.684Z,7.20
2022-08-09T22:23:35.531Z,8.13
2022-08-09T22:26:34.152Z,11.20
2022-08-09T22:29:06.778Z,6.47
2022-08-09T22:31:35.306Z,6.63
2022-08-09T22:34:02.832Z,11.40
2022-08-09T22:36:37.426Z,7.63
2022-08-09T22:39:47.091Z,8.52
2022-08-09T22:42:02.631Z,6.38
2022-08-09T22:44:32.840Z,8.60
2022-08-09T22:48:18.265Z,6.87
2022-08-09T22:49:51.965Z,5.55
2022-08-09T22:52:20.020Z,5.75
2022-08-09T22:54:47.685Z,8.30
2022-08-09T22:57:16.559Z,5.43
2022-08-09T22:59:57.073Z,5.83
2022-08-09T23:02:27.487Z,5.43
2022-08-09T23:04:56.850Z,5.20
2022-08-09T23:08:21.750Z,7.07
2022-08-09T23:10:30.908Z,7.50
2022-08-09T23:13:00.124Z,5.33
2022-08-09T23:15:28.563Z,6.90
2022-08-09T23:17:56.326Z,6.30
2022-08-09T23:20:26.001Z,8.07
2022-08-09T23:22:53.480Z,7.78
2022-08-09T23:25:21.008Z,8.27
2022-08-09T23:28:14.033Z,7.70
2022-08-09T23:30:37.267Z,6.18
2022-08-09T23:33:04.755Z,6.55
2022-08-09T23:36:04.622Z,6.35
2022-08-09T23:38:20.446Z,8.17
2022-08-09T23:40:51.143Z,9.25
2022-08-09T23:43:19.114Z,9.35
2022-08-09T23:45:48.286Z,8.70
2022-08-09T23:48:15.827Z,7.05
2022-08-09T23:50:43.294Z,10.80
2022-08-09T23:53:10.826Z,7.43
2022-08-09T23:55:39.912Z,5.88
2022-08-09T23:58:27.481Z,7.18
